sensor_id;sensor_type;location;lat;lon;timestamp;P1;durP1;ratioP1;P2;durP2;ratioP2
10246;SDS011;5168;47.854;7.944;2023-07-16T00:00:49;1.53;;;1.43;;
10246;SDS011;5168;47.854;7.944;2023-07-16T00:03:15;3.97;;;1.80;;
10246;SDS011;5168;47.854;7.944;2023-07-16T00:05:41;1.90;;;1.80;;
10246;SDS011;5168;47.854;7.944;2023-07-16T00:08:07;1.80;;;1.70;;
10246;SDS011;5168;47.854;7.944;2023-07-16T00:10:35;1.70;;;1.40;;
10246;SDS011;5168;47.854;7.944;2023-07-16T00:13:01;2.43;;;1.70;;
10246;SDS011;5168;47.854;7.944;2023-07-16T00:15:27;1.80;;;1.70;;
10246;SDS011;5168;47.854;7.944;2023-07-16T00:17:53;1.90;;;1.70;;
10246;SDS011;5168;47.854;7.944;2023-07-16T00:20:20;2.70;;;1.63;;
10246;SDS011;5168;47.854;7.944;2023-07-16T00:22:46;2.30;;;1.60;;
10246;SDS011;5168;47.854;7.944;2023-07-16T00:25:12;3.87;;;1.90;;
10246;SDS011;5168;47.854;7.944;2023-07-16T00:27:37;2.03;;;1.83;;
10246;SDS011;5168;47.854;7.944;2023-07-16T00:30:03;1.90;;;1.80;;
10246;SDS011;5168;47.854;7.944;2023-07-16T00:32:29;2.00;;;1.77;;
10246;SDS011;5168;47.854;7.944;2023-07-16T00:34:54;2.30;;;2.10;;
10246;SDS011;5168;47.854;7.944;2023-07-16T00:37:20;1.97;;;1.87;;
10246;SDS011;5168;47.854;7.944;2023-07-16T00:39:46;2.50;;;2.30;;
10246;SDS011;5168;47.854;7.944;2023-07-16T00:42:13;2.17;;;2.00;;
10246;SDS011;5168;47.854;7.944;2023-07-16T00:44:38;2.00;;;1.90;;
10246;SDS011;5168;47.854;7.944;2023-07-16T00:47:04;2.20;;;2.00;;
10246;SDS011;5168;47.854;7.944;2023-07-16T00:49:31;2.37;;;1.90;;
10246;SDS011;5168;47.854;7.944;2023-07-16T00:51:57;2.30;;;2.10;;
10246;SDS011;5168;47.854;7.944;2023-07-16T00:54:23;3.30;;;2.00;;
10246;SDS011;5168;47.854;7.944;2023-07-16T00:56:49;2.10;;;1.90;;
10246;SDS011;5168;47.854;7.944;2023-07-16T00:59:15;2.23;;;1.97;;
10246;SDS011;5168;47.854;7.944;2023-07-16T01:01:41;2.27;;;2.03;;
10246;SDS011;5168;47.854;7.944;2023-07-16T01:04:06;2.10;;;1.83;;
10246;SDS011;5168;47.854;7.944;2023-07-16T01:09:07;2.37;;;2.00;;
10246;SDS011;5168;47.854;7.944;2023-07-16T01:11:41;3.70;;;2.03;;
10246;SDS011;5168;47.854;7.944;2023-07-16T01:14:08;2.17;;;1.97;;
10246;SDS011;5168;47.854;7.944;2023-07-16T01:16:34;2.20;;;2.00;;
10246;SDS011;5168;47.854;7.944;2023-07-16T01:19:00;2.47;;;2.10;;
10246;SDS011;5168;47.854;7.944;2023-07-16T01:21:28;2.10;;;2.00;;
10246;SDS011;5168;47.854;7.944;2023-07-16T01:27:17;2.07;;;1.80;;
10246;SDS011;5168;47.854;7.944;2023-07-16T01:29:57;2.10;;;1.90;;
10246;SDS011;5168;47.854;7.944;2023-07-16T01:32:26;2.17;;;1.97;;
10246;SDS011;5168;47.854;7.944;2023-07-16T01:34:55;2.20;;;2.00;;
10246;SDS011;5168;47.854;7.944;2023-07-16T01:37:21;2.97;;;2.33;;
10246;SDS011;5168;47.854;7.944;2023-07-16T01:39:47;2.30;;;2.10;;
10246;SDS011;5168;47.854;7.944;2023-07-16T01:42:13;1.90;;;1.80;;
10246;SDS011;5168;47.854;7.944;2023-07-16T01:44:39;2.63;;;2.10;;
10246;SDS011;5168;47.854;7.944;2023-07-16T01:47:11;3.47;;;1.87;;
10246;SDS011;5168;47.854;7.944;2023-07-16T01:49:45;2.40;;;2.00;;
10246;SDS011;5168;47.854;7.944;2023-07-16T01:52:11;2.00;;;1.80;;
10246;SDS011;5168;47.854;7.944;2023-07-16T01:54:37;1.97;;;1.87;;
10246;SDS011;5168;47.854;7.944;2023-07-16T01:57:04;2.20;;;1.97;;
10246;SDS011;5168;47.854;7.944;2023-07-16T01:59:30;4.63;;;2.20;;
10246;SDS011;5168;47.854;7.944;2023-07-16T02:01:56;2.50;;;2.00;;
10246;SDS011;5168;47.854;7.944;2023-07-16T02:04:22;2.53;;;2.00;;
10246;SDS011;5168;47.854;7.944;2023-07-16T02:06:48;4.17;;;2.33;;
10246;SDS011;5168;47.854;7.944;2023-07-16T02:09:13;3.17;;;2.30;;
10246;SDS011;5168;47.854;7.944;2023-07-16T02:11:39;2.67;;;1.90;;
10246;SDS011;5168;47.854;7.944;2023-07-16T02:14:05;3.40;;;1.90;;
10246;SDS011;5168;47.854;7.944;2023-07-16T02:16:30;2.27;;;2.00;;
10246;SDS011;5168;47.854;7.944;2023-07-16T02:18:56;2.43;;;1.87;;
10246;SDS011;5168;47.854;7.944;2023-07-16T02:21:21;3.80;;;2.10;;
10246;SDS011;5168;47.854;7.944;2023-07-16T02:23:47;3.60;;;2.03;;
10246;SDS011;5168;47.854;7.944;2023-07-16T02:26:13;3.87;;;2.20;;
10246;SDS011;5168;47.854;7.944;2023-07-16T02:28:39;4.00;;;2.17;;
10246;SDS011;5168;47.854;7.944;2023-07-16T02:31:05;4.17;;;1.80;;
10246;SDS011;5168;47.854;7.944;2023-07-16T02:33:30;4.40;;;2.13;;
10246;SDS011;5168;47.854;7.944;2023-07-16T02:35:56;3.03;;;2.07;;
10246;SDS011;5168;47.854;7.944;2023-07-16T02:38:21;2.97;;;1.90;;
10246;SDS011;5168;47.854;7.944;2023-07-16T02:40:47;3.60;;;1.90;;
10246;SDS011;5168;47.854;7.944;2023-07-16T02:43:14;2.43;;;1.67;;
10246;SDS011;5168;47.854;7.944;2023-07-16T02:45:40;4.70;;;2.17;;
10246;SDS011;5168;47.854;7.944;2023-07-16T02:48:06;2.60;;;2.10;;
10246;SDS011;5168;47.854;7.944;2023-07-16T02:50:35;3.70;;;2.03;;
10246;SDS011;5168;47.854;7.944;2023-07-16T02:53:03;3.27;;;1.93;;
10246;SDS011;5168;47.854;7.944;2023-07-16T02:55:29;3.40;;;1.80;;
10246;SDS011;5168;47.854;7.944;2023-07-16T02:57:55;3.23;;;1.97;;
10246;SDS011;5168;47.854;7.944;2023-07-16T03:00:21;2.87;;;2.20;;
10246;SDS011;5168;47.854;7.944;2023-07-16T03:02:46;3.60;;;2.10;;
10246;SDS011;5168;47.854;7.944;2023-07-16T03:05:14;2.77;;;2.20;;
10246;SDS011;5168;47.854;7.944;2023-07-16T03:07:40;4.03;;;2.00;;
10246;SDS011;5168;47.854;7.944;2023-07-16T03:10:05;4.00;;;2.40;;
10246;SDS011;5168;47.854;7.944;2023-07-16T03:12:31;3.27;;;2.10;;
10246;SDS011;5168;47.854;7.944;2023-07-16T03:14:57;3.73;;;2.10;;
10246;SDS011;5168;47.854;7.944;2023-07-16T03:17:23;3.53;;;2.23;;
10246;SDS011;5168;47.854;7.944;2023-07-16T03:19:49;3.30;;;2.07;;
10246;SDS011;5168;47.854;7.944;2023-07-16T03:22:14;3.70;;;2.03;;
10246;SDS011;5168;47.854;7.944;2023-07-16T03:24:40;4.63;;;2.43;;
10246;SDS011;5168;47.854;7.944;2023-07-16T03:27:06;2.47;;;1.90;;
10246;SDS011;5168;47.854;7.944;2023-07-16T03:29:35;2.37;;;2.00;;
10246;SDS011;5168;47.854;7.944;2023-07-16T03:32:00;3.17;;;2.10;;
10246;SDS011;5168;47.854;7.944;2023-07-16T03:34:26;3.40;;;2.13;;
10246;SDS011;5168;47.854;7.944;2023-07-16T03:36:52;2.97;;;2.07;;
10246;SDS011;5168;47.854;7.944;2023-07-16T03:39:18;2.67;;;1.97;;
10246;SDS011;5168;47.854;7.944;2023-07-16T03:41:44;4.37;;;2.30;;
10246;SDS011;5168;47.854;7.944;2023-07-16T03:44:09;2.63;;;2.10;;
10246;SDS011;5168;47.854;7.944;2023-07-16T03:46:35;3.83;;;2.20;;
10246;SDS011;5168;47.854;7.944;2023-07-16T03:49:01;3.33;;;1.93;;
10246;SDS011;5168;47.854;7.944;2023-07-16T03:51:27;2.63;;;2.00;;
10246;SDS011;5168;47.854;7.944;2023-07-16T03:53:52;3.10;;;2.10;;
10246;SDS011;5168;47.854;7.944;2023-07-16T03:56:18;4.20;;;2.20;;
10246;SDS011;5168;47.854;7.944;2023-07-16T03:58:43;3.03;;;2.20;;
10246;SDS011;5168;47.854;7.944;2023-07-16T04:01:09;5.43;;;2.27;;
10246;SDS011;5168;47.854;7.944;2023-07-16T04:03:35;5.27;;;2.73;;
10246;SDS011;5168;47.854;7.944;2023-07-16T04:06:04;3.90;;;2.23;;
10246;SDS011;5168;47.854;7.944;2023-07-16T04:08:31;2.80;;;1.90;;
10246;SDS011;5168;47.854;7.944;2023-07-16T04:10:57;2.40;;;2.13;;
10246;SDS011;5168;47.854;7.944;2023-07-16T04:13:23;3.20;;;2.30;;
10246;SDS011;5168;47.854;7.944;2023-07-16T04:15:49;3.97;;;2.37;;
10246;SDS011;5168;47.854;7.944;2023-07-16T04:18:14;3.47;;;2.37;;
10246;SDS011;5168;47.854;7.944;2023-07-16T04:20:40;2.60;;;2.07;;
10246;SDS011;5168;47.854;7.944;2023-07-16T04:23:06;2.40;;;2.10;;
10246;SDS011;5168;47.854;7.944;2023-07-16T04:25:32;3.00;;;2.30;;
10246;SDS011;5168;47.854;7.944;2023-07-16T04:27:57;2.40;;;2.20;;
10246;SDS011;5168;47.854;7.944;2023-07-16T04:30:24;3.53;;;2.27;;
10246;SDS011;5168;47.854;7.944;2023-07-16T04:32:49;2.43;;;2.07;;
10246;SDS011;5168;47.854;7.944;2023-07-16T04:35:15;5.07;;;2.40;;
10246;SDS011;5168;47.854;7.944;2023-07-16T04:37:40;3.60;;;2.23;;
10246;SDS011;5168;47.854;7.944;2023-07-16T04:40:07;2.33;;;2.00;;
10246;SDS011;5168;47.854;7.944;2023-07-16T04:42:34;2.37;;;2.17;;
10246;SDS011;5168;47.854;7.944;2023-07-16T04:44:59;2.97;;;2.30;;
10246;SDS011;5168;47.854;7.944;2023-07-16T04:47:25;4.40;;;2.70;;
10246;SDS011;5168;47.854;7.944;2023-07-16T04:49:51;3.53;;;2.30;;
10246;SDS011;5168;47.854;7.944;2023-07-16T04:52:16;3.03;;;2.17;;
10246;SDS011;5168;47.854;7.944;2023-07-16T04:54:42;2.30;;;2.10;;
10246;SDS011;5168;47.854;7.944;2023-07-16T04:57:08;3.37;;;2.20;;
10246;SDS011;5168;47.854;7.944;2023-07-16T04:59:34;2.70;;;2.07;;
10246;SDS011;5168;47.854;7.944;2023-07-16T05:02:01;6.23;;;2.33;;
10246;SDS011;5168;47.854;7.944;2023-07-16T05:04:29;3.23;;;2.30;;
10246;SDS011;5168;47.854;7.944;2023-07-16T05:06:55;4.07;;;2.40;;
10246;SDS011;5168;47.854;7.944;2023-07-16T05:09:21;2.70;;;2.23;;
10246;SDS011;5168;47.854;7.944;2023-07-16T05:11:47;3.43;;;2.30;;
10246;SDS011;5168;47.854;7.944;2023-07-16T05:14:12;2.50;;;2.30;;
10246;SDS011;5168;47.854;7.944;2023-07-16T05:16:38;2.30;;;2.10;;
10246;SDS011;5168;47.854;7.944;2023-07-16T05:19:04;3.20;;;2.37;;
10246;SDS011;5168;47.854;7.944;2023-07-16T05:21:29;4.00;;;2.60;;
10246;SDS011;5168;47.854;7.944;2023-07-16T05:23:55;3.37;;;2.60;;
10246;SDS011;5168;47.854;7.944;2023-07-16T05:26:20;6.47;;;2.70;;
10246;SDS011;5168;47.854;7.944;2023-07-16T05:28:46;2.57;;;2.27;;
10246;SDS011;5168;47.854;7.944;2023-07-16T05:31:12;3.27;;;2.30;;
10246;SDS011;5168;47.854;7.944;2023-07-16T05:33:38;2.77;;;2.10;;
10246;SDS011;5168;47.854;7.944;2023-07-16T05:36:03;5.37;;;2.57;;
10246;SDS011;5168;47.854;7.944;2023-07-16T05:38:29;3.13;;;2.43;;
10246;SDS011;5168;47.854;7.944;2023-07-16T05:41:00;2.60;;;2.20;;
10246;SDS011;5168;47.854;7.944;2023-07-16T05:43:27;5.50;;;2.37;;
10246;SDS011;5168;47.854;7.944;2023-07-16T05:45:53;4.23;;;2.40;;
10246;SDS011;5168;47.854;7.944;2023-07-16T05:48:18;6.70;;;2.47;;
10246;SDS011;5168;47.854;7.944;2023-07-16T05:50:44;6.30;;;2.77;;
10246;SDS011;5168;47.854;7.944;2023-07-16T05:53:10;6.13;;;2.50;;
10246;SDS011;5168;47.854;7.944;2023-07-16T05:55:36;3.00;;;2.70;;
10246;SDS011;5168;47.854;7.944;2023-07-16T05:58:04;5.90;;;2.80;;
10246;SDS011;5168;47.854;7.944;2023-07-16T06:00:30;5.40;;;3.03;;
10246;SDS011;5168;47.854;7.944;2023-07-16T06:02:55;4.00;;;2.63;;
10246;SDS011;5168;47.854;7.944;2023-07-16T06:05:22;4.47;;;2.53;;
10246;SDS011;5168;47.854;7.944;2023-07-16T06:07:49;4.67;;;2.40;;
10246;SDS011;5168;47.854;7.944;2023-07-16T06:10:15;3.07;;;2.20;;
10246;SDS011;5168;47.854;7.944;2023-07-16T06:12:41;3.33;;;2.70;;
10246;SDS011;5168;47.854;7.944;2023-07-16T06:15:06;3.00;;;2.30;;
10246;SDS011;5168;47.854;7.944;2023-07-16T06:17:33;5.03;;;2.30;;
10246;SDS011;5168;47.854;7.944;2023-07-16T06:19:58;4.93;;;2.70;;
10246;SDS011;5168;47.854;7.944;2023-07-16T06:22:24;4.30;;;2.37;;
10246;SDS011;5168;47.854;7.944;2023-07-16T06:24:49;4.20;;;2.10;;
10246;SDS011;5168;47.854;7.944;2023-07-16T06:27:15;6.90;;;2.80;;
10246;SDS011;5168;47.854;7.944;2023-07-16T06:29:40;2.60;;;2.40;;
10246;SDS011;5168;47.854;7.944;2023-07-16T06:32:07;3.83;;;2.50;;
10246;SDS011;5168;47.854;7.944;2023-07-16T06:34:33;4.20;;;2.47;;
10246;SDS011;5168;47.854;7.944;2023-07-16T06:36:59;5.00;;;2.73;;
10246;SDS011;5168;47.854;7.944;2023-07-16T06:39:25;7.77;;;2.90;;
10246;SDS011;5168;47.854;7.944;2023-07-16T06:41:50;5.70;;;2.60;;
10246;SDS011;5168;47.854;7.944;2023-07-16T06:44:16;4.40;;;2.60;;
10246;SDS011;5168;47.854;7.944;2023-07-16T06:46:42;3.83;;;2.27;;
10246;SDS011;5168;47.854;7.944;2023-07-16T06:49:07;4.73;;;2.30;;
10246;SDS011;5168;47.854;7.944;2023-07-16T06:51:33;3.57;;;2.50;;
10246;SDS011;5168;47.854;7.944;2023-07-16T06:53:59;3.87;;;2.17;;
10246;SDS011;5168;47.854;7.944;2023-07-16T06:56:25;4.63;;;2.40;;
10246;SDS011;5168;47.854;7.944;2023-07-16T06:58:50;3.80;;;2.30;;
10246;SDS011;5168;47.854;7.944;2023-07-16T07:01:16;4.63;;;2.40;;
10246;SDS011;5168;47.854;7.944;2023-07-16T07:03:42;4.20;;;2.40;;
10246;SDS011;5168;47.854;7.944;2023-07-16T07:06:08;4.33;;;2.30;;
10246;SDS011;5168;47.854;7.944;2023-07-16T07:08:35;3.83;;;2.10;;
10246;SDS011;5168;47.854;7.944;2023-07-16T07:11:01;3.07;;;2.27;;
10246;SDS011;5168;47.854;7.944;2023-07-16T07:13:27;4.37;;;2.37;;
10246;SDS011;5168;47.854;7.944;2023-07-16T07:15:54;3.77;;;2.40;;
10246;SDS011;5168;47.854;7.944;2023-07-16T07:18:20;2.83;;;2.00;;
10246;SDS011;5168;47.854;7.944;2023-07-16T07:20:46;3.00;;;1.87;;
10246;SDS011;5168;47.854;7.944;2023-07-16T07:23:12;3.40;;;2.10;;
10246;SDS011;5168;47.854;7.944;2023-07-16T07:25:38;6.43;;;1.80;;
10246;SDS011;5168;47.854;7.944;2023-07-16T07:28:04;5.60;;;2.17;;
10246;SDS011;5168;47.854;7.944;2023-07-16T07:30:30;3.63;;;2.10;;
10246;SDS011;5168;47.854;7.944;2023-07-16T07:32:55;5.97;;;2.17;;
10246;SDS011;5168;47.854;7.944;2023-07-16T07:35:21;2.47;;;1.83;;
10246;SDS011;5168;47.854;7.944;2023-07-16T07:37:47;5.03;;;1.90;;
10246;SDS011;5168;47.854;7.944;2023-07-16T07:40:13;5.10;;;2.20;;
10246;SDS011;5168;47.854;7.944;2023-07-16T07:42:39;2.50;;;1.90;;
10246;SDS011;5168;47.854;7.944;2023-07-16T07:45:04;4.60;;;1.90;;
10246;SDS011;5168;47.854;7.944;2023-07-16T07:47:30;4.10;;;1.87;;
10246;SDS011;5168;47.854;7.944;2023-07-16T07:49:56;4.73;;;2.27;;
10246;SDS011;5168;47.854;7.944;2023-07-16T07:52:22;3.90;;;2.33;;
10246;SDS011;5168;47.854;7.944;2023-07-16T07:54:48;3.43;;;1.73;;
10246;SDS011;5168;47.854;7.944;2023-07-16T07:57:15;4.73;;;2.30;;
10246;SDS011;5168;47.854;7.944;2023-07-16T07:59:40;6.60;;;2.20;;
10246;SDS011;5168;47.854;7.944;2023-07-16T08:02:06;10.80;;;2.00;;
10246;SDS011;5168;47.854;7.944;2023-07-16T08:04:32;3.93;;;2.20;;
10246;SDS011;5168;47.854;7.944;2023-07-16T08:06:57;2.43;;;1.80;;
10246;SDS011;5168;47.854;7.944;2023-07-16T08:09:23;5.20;;;2.30;;
10246;SDS011;5168;47.854;7.944;2023-07-16T08:11:50;3.13;;;2.10;;
10246;SDS011;5168;47.854;7.944;2023-07-16T08:14:16;4.83;;;2.33;;
10246;SDS011;5168;47.854;7.944;2023-07-16T08:16:41;4.43;;;2.13;;
10246;SDS011;5168;47.854;7.944;2023-07-16T08:19:07;3.37;;;2.00;;
10246;SDS011;5168;47.854;7.944;2023-07-16T08:21:34;5.37;;;2.43;;
10246;SDS011;5168;47.854;7.944;2023-07-16T08:24:00;4.40;;;2.40;;
10246;SDS011;5168;47.854;7.944;2023-07-16T08:26:26;2.77;;;1.97;;
10246;SDS011;5168;47.854;7.944;2023-07-16T08:28:52;5.67;;;2.27;;
10246;SDS011;5168;47.854;7.944;2023-07-16T08:31:18;3.43;;;2.10;;
10246;SDS011;5168;47.854;7.944;2023-07-16T08:33:44;4.63;;;2.30;;
10246;SDS011;5168;47.854;7.944;2023-07-16T08:36:09;4.13;;;2.30;;
10246;SDS011;5168;47.854;7.944;2023-07-16T08:38:35;8.33;;;2.30;;
10246;SDS011;5168;47.854;7.944;2023-07-16T08:41:01;3.67;;;2.10;;
10246;SDS011;5168;47.854;7.944;2023-07-16T08:43:27;3.70;;;1.90;;
10246;SDS011;5168;47.854;7.944;2023-07-16T08:45:54;3.57;;;1.80;;
10246;SDS011;5168;47.854;7.944;2023-07-16T08:48:20;4.20;;;2.00;;
10246;SDS011;5168;47.854;7.944;2023-07-16T08:50:47;5.07;;;1.80;;
10246;SDS011;5168;47.854;7.944;2023-07-16T08:53:16;4.13;;;2.37;;
10246;SDS011;5168;47.854;7.944;2023-07-16T08:55:45;4.73;;;2.50;;
10246;SDS011;5168;47.854;7.944;2023-07-16T08:58:12;2.13;;;1.93;;
10246;SDS011;5168;47.854;7.944;2023-07-16T09:00:40;5.83;;;2.20;;
10246;SDS011;5168;47.854;7.944;2023-07-16T09:03:12;4.40;;;1.97;;
10246;SDS011;5168;47.854;7.944;2023-07-16T09:05:46;4.23;;;2.17;;
10246;SDS011;5168;47.854;7.944;2023-07-16T09:08:12;2.50;;;2.10;;
10246;SDS011;5168;47.854;7.944;2023-07-16T09:10:41;5.03;;;2.30;;
10246;SDS011;5168;47.854;7.944;2023-07-16T09:13:07;3.03;;;1.97;;
10246;SDS011;5168;47.854;7.944;2023-07-16T09:15:33;4.40;;;2.13;;
10246;SDS011;5168;47.854;7.944;2023-07-16T09:17:59;4.90;;;1.97;;
10246;SDS011;5168;47.854;7.944;2023-07-16T09:20:25;5.63;;;1.80;;
10246;SDS011;5168;47.854;7.944;2023-07-16T09:22:55;5.17;;;2.13;;
10246;SDS011;5168;47.854;7.944;2023-07-16T09:25:30;4.97;;;1.73;;
10246;SDS011;5168;47.854;7.944;2023-07-16T09:28:02;5.17;;;2.27;;
10246;SDS011;5168;47.854;7.944;2023-07-16T09:30:31;5.77;;;2.23;;
10246;SDS011;5168;47.854;7.944;2023-07-16T09:33:09;9.77;;;2.30;;
10246;SDS011;5168;47.854;7.944;2023-07-16T09:35:38;6.17;;;2.13;;
10246;SDS011;5168;47.854;7.944;2023-07-16T09:38:04;4.07;;;2.00;;
10246;SDS011;5168;47.854;7.944;2023-07-16T09:40:32;4.80;;;1.97;;
10246;SDS011;5168;47.854;7.944;2023-07-16T09:42:58;5.93;;;2.20;;
10246;SDS011;5168;47.854;7.944;2023-07-16T09:45:26;4.80;;;2.20;;
10246;SDS011;5168;47.854;7.944;2023-07-16T09:47:52;4.07;;;2.37;;
10246;SDS011;5168;47.854;7.944;2023-07-16T09:50:18;4.13;;;2.20;;
10246;SDS011;5168;47.854;7.944;2023-07-16T09:52:44;4.27;;;2.10;;
10246;SDS011;5168;47.854;7.944;2023-07-16T09:55:12;4.87;;;2.23;;
10246;SDS011;5168;47.854;7.944;2023-07-16T09:57:41;3.30;;;2.00;;
10246;SDS011;5168;47.854;7.944;2023-07-16T10:00:09;6.10;;;2.13;;
10246;SDS011;5168;47.854;7.944;2023-07-16T10:02:37;5.57;;;1.93;;
10246;SDS011;5168;47.854;7.944;2023-07-16T10:05:13;2.30;;;1.90;;
10246;SDS011;5168;47.854;7.944;2023-07-16T10:07:40;5.37;;;2.30;;
10246;SDS011;5168;47.854;7.944;2023-07-16T10:10:09;2.10;;;1.80;;
10246;SDS011;5168;47.854;7.944;2023-07-16T10:12:36;3.17;;;1.97;;
10246;SDS011;5168;47.854;7.944;2023-07-16T10:15:02;5.30;;;2.00;;
10246;SDS011;5168;47.854;7.944;2023-07-16T10:17:32;3.30;;;1.93;;
10246;SDS011;5168;47.854;7.944;2023-07-16T10:19:59;3.37;;;1.77;;
10246;SDS011;5168;47.854;7.944;2023-07-16T10:27:42;3.50;;;1.90;;
10246;SDS011;5168;47.854;7.944;2023-07-16T10:30:09;4.10;;;2.00;;
10246;SDS011;5168;47.854;7.944;2023-07-16T10:32:35;5.33;;;2.07;;
10246;SDS011;5168;47.854;7.944;2023-07-16T10:35:01;5.13;;;2.20;;
10246;SDS011;5168;47.854;7.944;2023-07-16T10:37:28;3.83;;;1.80;;
10246;SDS011;5168;47.854;7.944;2023-07-16T10:39:55;7.83;;;2.03;;
10246;SDS011;5168;47.854;7.944;2023-07-16T10:42:23;2.97;;;1.97;;
10246;SDS011;5168;47.854;7.944;2023-07-16T10:44:50;5.67;;;1.83;;
10246;SDS011;5168;47.854;7.944;2023-07-16T10:47:23;3.57;;;1.90;;
10246;SDS011;5168;47.854;7.944;2023-07-16T10:49:50;4.87;;;1.73;;
10246;SDS011;5168;47.854;7.944;2023-07-16T10:52:20;3.37;;;1.83;;
10246;SDS011;5168;47.854;7.944;2023-07-16T10:54:47;4.00;;;1.83;;
10246;SDS011;5168;47.854;7.944;2023-07-16T10:57:15;2.57;;;1.80;;
10246;SDS011;5168;47.854;7.944;2023-07-16T10:59:41;3.97;;;2.10;;
10246;SDS011;5168;47.854;7.944;2023-07-16T11:02:10;3.97;;;2.30;;
10246;SDS011;5168;47.854;7.944;2023-07-16T11:04:37;3.92;;;1.80;;
10246;SDS011;5168;47.854;7.944;2023-07-16T11:07:05;2.35;;;1.85;;
10246;SDS011;5168;47.854;7.944;2023-07-16T11:12:19;3.05;;;1.85;;
10246;SDS011;5168;47.854;7.944;2023-07-16T11:14:49;2.55;;;1.65;;
10246;SDS011;5168;47.854;7.944;2023-07-16T11:17:16;3.65;;;1.90;;
10246;SDS011;5168;47.854;7.944;2023-07-16T11:19:46;4.70;;;2.03;;
10246;SDS011;5168;47.854;7.944;2023-07-16T11:22:13;3.85;;;2.10;;
10246;SDS011;5168;47.854;7.944;2023-07-16T11:24:43;2.95;;;1.85;;
10246;SDS011;5168;47.854;7.944;2023-07-16T11:27:20;2.63;;;1.70;;
10246;SDS011;5168;47.854;7.944;2023-07-16T11:32:13;5.18;;;2.00;;
10246;SDS011;5168;47.854;7.944;2023-07-16T11:34:57;4.40;;;1.80;;
10246;SDS011;5168;47.854;7.944;2023-07-16T11:37:24;2.92;;;2.00;;
10246;SDS011;5168;47.854;7.944;2023-07-16T11:39:50;3.65;;;2.00;;
10246;SDS011;5168;47.854;7.944;2023-07-16T11:42:37;3.38;;;1.98;;
10246;SDS011;5168;47.854;7.944;2023-07-16T11:45:03;5.65;;;2.00;;
10246;SDS011;5168;47.854;7.944;2023-07-16T11:47:29;3.20;;;1.80;;
10246;SDS011;5168;47.854;7.944;2023-07-16T11:49:56;3.33;;;1.70;;
10246;SDS011;5168;47.854;7.944;2023-07-16T11:54:49;3.90;;;1.85;;
10246;SDS011;5168;47.854;7.944;2023-07-16T11:57:16;3.45;;;1.70;;
10246;SDS011;5168;47.854;7.944;2023-07-16T11:59:42;2.83;;;2.00;;
10246;SDS011;5168;47.854;7.944;2023-07-16T12:02:08;2.13;;;1.83;;
10246;SDS011;5168;47.854;7.944;2023-07-16T12:04:34;2.60;;;1.88;;
10246;SDS011;5168;47.854;7.944;2023-07-16T12:07:00;4.28;;;1.98;;
10246;SDS011;5168;47.854;7.944;2023-07-16T12:09:26;2.40;;;1.70;;
10246;SDS011;5168;47.854;7.944;2023-07-16T12:11:52;4.18;;;1.88;;
10246;SDS011;5168;47.854;7.944;2023-07-16T12:14:17;1.90;;;1.70;;
10246;SDS011;5168;47.854;7.944;2023-07-16T12:16:43;2.35;;;1.70;;
10246;SDS011;5168;47.854;7.944;2023-07-16T12:19:09;2.80;;;1.70;;
10246;SDS011;5168;47.854;7.944;2023-07-16T12:21:35;4.03;;;1.80;;
10246;SDS011;5168;47.854;7.944;2023-07-16T12:24:01;3.60;;;2.10;;
10246;SDS011;5168;47.854;7.944;2023-07-16T12:26:27;3.15;;;1.90;;
10246;SDS011;5168;47.854;7.944;2023-07-16T12:28:53;2.88;;;2.00;;
10246;SDS011;5168;47.854;7.944;2023-07-16T12:31:20;2.58;;;1.80;;
10246;SDS011;5168;47.854;7.944;2023-07-16T12:33:46;2.88;;;1.90;;
10246;SDS011;5168;47.854;7.944;2023-07-16T12:36:12;2.90;;;1.70;;
10246;SDS011;5168;47.854;7.944;2023-07-16T12:38:38;2.75;;;2.00;;
10246;SDS011;5168;47.854;7.944;2023-07-16T12:41:04;2.80;;;1.65;;
10246;SDS011;5168;47.854;7.944;2023-07-16T12:43:30;2.95;;;1.88;;
10246;SDS011;5168;47.854;7.944;2023-07-16T12:45:58;3.72;;;2.03;;
10246;SDS011;5168;47.854;7.944;2023-07-16T12:48:30;3.55;;;1.70;;
10246;SDS011;5168;47.854;7.944;2023-07-16T12:50:56;4.47;;;1.80;;
10246;SDS011;5168;47.854;7.944;2023-07-16T12:53:22;3.65;;;1.83;;
10246;SDS011;5168;47.854;7.944;2023-07-16T12:55:48;3.05;;;1.88;;
10246;SDS011;5168;47.854;7.944;2023-07-16T12:58:14;2.80;;;1.88;;
10246;SDS011;5168;47.854;7.944;2023-07-16T13:00:40;2.38;;;1.73;;
10246;SDS011;5168;47.854;7.944;2023-07-16T13:03:06;3.40;;;1.90;;
10246;SDS011;5168;47.854;7.944;2023-07-16T13:05:36;3.33;;;1.88;;
10246;SDS011;5168;47.854;7.944;2023-07-16T13:08:05;3.88;;;2.00;;
10246;SDS011;5168;47.854;7.944;2023-07-16T13:10:31;6.30;;;2.08;;
10246;SDS011;5168;47.854;7.944;2023-07-16T13:12:57;3.63;;;1.75;;
10246;SDS011;5168;47.854;7.944;2023-07-16T13:15:23;3.63;;;1.70;;
10246;SDS011;5168;47.854;7.944;2023-07-16T13:17:49;2.83;;;1.80;;
10246;SDS011;5168;47.854;7.944;2023-07-16T13:20:14;3.72;;;1.70;;
10246;SDS011;5168;47.854;7.944;2023-07-16T13:22:40;1.98;;;1.77;;
10246;SDS011;5168;47.854;7.944;2023-07-16T13:25:06;2.53;;;1.80;;
10246;SDS011;5168;47.854;7.944;2023-07-16T13:27:32;2.85;;;1.90;;
10246;SDS011;5168;47.854;7.944;2023-07-16T13:29:57;3.50;;;1.90;;
10246;SDS011;5168;47.854;7.944;2023-07-16T13:32:23;2.95;;;1.92;;
10246;SDS011;5168;47.854;7.944;2023-07-16T13:34:49;5.68;;;2.00;;
10246;SDS011;5168;47.854;7.944;2023-07-16T13:37:14;2.85;;;2.00;;
10246;SDS011;5168;47.854;7.944;2023-07-16T13:39:40;2.15;;;1.67;;
10246;SDS011;5168;47.854;7.944;2023-07-16T13:42:06;2.53;;;1.90;;
10246;SDS011;5168;47.854;7.944;2023-07-16T13:44:32;2.65;;;1.70;;
10246;SDS011;5168;47.854;7.944;2023-07-16T13:46:58;4.55;;;1.83;;
10246;SDS011;5168;47.854;7.944;2023-07-16T13:49:24;3.30;;;1.80;;
10246;SDS011;5168;47.854;7.944;2023-07-16T13:51:50;3.95;;;1.90;;
10246;SDS011;5168;47.854;7.944;2023-07-16T13:54:16;2.85;;;1.90;;
10246;SDS011;5168;47.854;7.944;2023-07-16T13:56:41;4.07;;;2.17;;
10246;SDS011;5168;47.854;7.944;2023-07-16T13:59:07;2.80;;;1.88;;
10246;SDS011;5168;47.854;7.944;2023-07-16T14:01:37;3.83;;;1.92;;
10246;SDS011;5168;47.854;7.944;2023-07-16T14:04:03;3.80;;;2.03;;
10246;SDS011;5168;47.854;7.944;2023-07-16T14:06:29;3.63;;;2.03;;
10246;SDS011;5168;47.854;7.944;2023-07-16T14:08:55;4.25;;;1.70;;
10246;SDS011;5168;47.854;7.944;2023-07-16T14:11:21;3.67;;;1.95;;
10246;SDS011;5168;47.854;7.944;2023-07-16T14:13:47;4.45;;;2.17;;
10246;SDS011;5168;47.854;7.944;2023-07-16T14:16:16;2.17;;;1.70;;
10246;SDS011;5168;47.854;7.944;2023-07-16T14:18:42;3.95;;;2.00;;
10246;SDS011;5168;47.854;7.944;2023-07-16T14:21:07;5.15;;;2.00;;
10246;SDS011;5168;47.854;7.944;2023-07-16T14:23:33;2.90;;;1.85;;
10246;SDS011;5168;47.854;7.944;2023-07-16T14:25:59;2.72;;;1.60;;
10246;SDS011;5168;47.854;7.944;2023-07-16T14:28:24;2.35;;;1.73;;
10246;SDS011;5168;47.854;7.944;2023-07-16T14:30:50;4.80;;;1.80;;
10246;SDS011;5168;47.854;7.944;2023-07-16T14:33:16;2.72;;;1.60;;
10246;SDS011;5168;47.854;7.944;2023-07-16T14:35:42;2.60;;;1.75;;
10246;SDS011;5168;47.854;7.944;2023-07-16T14:38:08;2.28;;;1.73;;
10246;SDS011;5168;47.854;7.944;2023-07-16T14:40:33;3.88;;;1.90;;
10246;SDS011;5168;47.854;7.944;2023-07-16T14:42:59;3.58;;;2.00;;
10246;SDS011;5168;47.854;7.944;2023-07-16T14:45:25;3.70;;;1.95;;
10246;SDS011;5168;47.854;7.944;2023-07-16T14:47:50;3.10;;;2.00;;
10246;SDS011;5168;47.854;7.944;2023-07-16T14:50:16;2.83;;;1.90;;
10246;SDS011;5168;47.854;7.944;2023-07-16T14:52:42;3.40;;;1.90;;
10246;SDS011;5168;47.854;7.944;2023-07-16T14:55:07;3.60;;;1.95;;
10246;SDS011;5168;47.854;7.944;2023-07-16T14:57:33;3.75;;;2.20;;
10246;SDS011;5168;47.854;7.944;2023-07-16T14:59:59;2.30;;;2.03;;
10246;SDS011;5168;47.854;7.944;2023-07-16T15:02:25;5.65;;;1.95;;
10246;SDS011;5168;47.854;7.944;2023-07-16T15:04:51;3.28;;;2.00;;
10246;SDS011;5168;47.854;7.944;2023-07-16T15:07:17;4.85;;;2.30;;
10246;SDS011;5168;47.854;7.944;2023-07-16T15:09:42;4.22;;;2.15;;
10246;SDS011;5168;47.854;7.944;2023-07-16T15:12:08;2.45;;;1.90;;
10246;SDS011;5168;47.854;7.944;2023-07-16T15:14:34;3.40;;;2.10;;